Home > Products > Valid Products > TAF

000
FTUS42 KILM 271720
TAFFLO
TAF
KFLO 271720Z 2718/2818 22008KT P6SM VCSH SCT025 BKN060
      TEMPO 2718/2721 4SM SHRA BKN030
     FM272100 18008KT P6SM SCT025 BKN050 OVC100
     FM280200 18004KT P6SM BKN250
     FM280700 13002KT 4SM BR SKC
     FM281200 19008KT P6SM FEW025 SCT250=



000
FTUS42 KILM 271720
TAFILM
TAF
KILM 271720Z 2718/2818 15012G17KT P6SM SCT040 BKN250
     FM280200 VRB03KT P6SM SKC
      TEMPO 2808/2811 5SM BR
     FM281200 19008KT P6SM FEW025 SCT250=



000
FTUS42 KILM 271720
TAFFLO
TAF
KFLO 271720Z 2718/2818 22008KT P6SM VCSH SCT025 BKN060
      TEMPO 2718/2721 4SM SHRA BKN030
     FM272100 18008KT P6SM SCT025 BKN050 OVC100
     FM280200 18004KT P6SM BKN250
     FM280700 13002KT 4SM BR SKC
     FM281200 19008KT P6SM FEW025 SCT250=



000
FTUS42 KILM 271720
TAFCRE
TAF
KCRE 271720Z 2718/2818 17010G16KT P6SM SCT040 BKN250
     FM280200 VRB03KT P6SM SKC
      TEMPO 2808/2811 4SM BR
     FM281200 19008KT P6SM FEW025 SCT250=



000
FTUS42 KILM 271720
TAFILM
TAF
KILM 271720Z 2718/2818 15012G17KT P6SM SCT040 BKN250
     FM280200 VRB03KT P6SM SKC
      TEMPO 2808/2811 5SM BR
     FM281200 19008KT P6SM FEW025 SCT250=



000
FTUS42 KILM 271720
TAFMYR
TAF
KMYR 271720Z 2718/2818 17011G16KT P6SM SCT040 BKN250
     FM280200 VRB03KT P6SM SKC
      TEMPO 2808/2811 5SM BR
     FM281200 19008KT P6SM FEW025 SCT250=



000
FTUS42 KILM 271720
TAFCRE
TAF
KCRE 271720Z 2718/2818 17010G16KT P6SM SCT040 BKN250
     FM280200 VRB03KT P6SM SKC
      TEMPO 2808/2811 4SM BR
     FM281200 19008KT P6SM FEW025 SCT250=



000
FTUS42 KILM 271720
TAFLBT
TAF
KLBT 271720Z 2718/2818 21008KT P6SM VCSH SCT025 BKN060
      TEMPO 2718/2721 4SM SHRA BKN035
     FM272100 18008KT P6SM SCT025 BKN050 OVC100
     FM280200 18004KT P6SM BKN250
     FM280700 13002KT 4SM BR SKC
     FM281200 19008KT P6SM FEW025 SCT250=



000
FTUS42 KILM 271720
TAFLBT
TAF
KLBT 271720Z 2718/2818 21008KT P6SM VCSH SCT025 BKN060
      TEMPO 2718/2721 4SM SHRA BKN035
     FM272100 18008KT P6SM SCT025 BKN050 OVC100
     FM280200 18004KT P6SM BKN250
     FM280700 13002KT 4SM BR SKC
     FM281200 19008KT P6SM FEW025 SCT250=



000
FTUS42 KILM 271720
TAFMYR
TAF
KMYR 271720Z 2718/2818 17011G16KT P6SM SCT040 BKN250
     FM280200 VRB03KT P6SM SKC
      TEMPO 2808/2811 5SM BR
     FM281200 19008KT P6SM FEW025 SCT250=



000
FTUS42 KILM 271534 AAC
TAFFLO
TAF AMD
KFLO 271534Z 2716/2812 21008KT P6SM VCSH SCT025 BKN060
      TEMPO 2716/2719 2SM +SHRA BKN025
     FM272100 18008KT P6SM SCT025 BKN050 OVC100
     FM280200 18004KT P6SM BKN250=



000
FTUS42 KILM 271534 AAC
TAFFLO
TAF AMD
KFLO 271534Z 2716/2812 21008KT P6SM VCSH SCT025 BKN060
      TEMPO 2716/2719 2SM +SHRA BKN025
     FM272100 18008KT P6SM SCT025 BKN050 OVC100
     FM280200 18004KT P6SM BKN250=



000
FTUS42 KILM 271508 AAB
TAFFLO
TAF AMD
KFLO 271508Z 2715/2812 21008KT P6SM VCSH SCT025 BKN060
      TEMPO 2715/2718 4SM SHRA BKN025
     FM272100 18008KT P6SM SCT025 BKN050 OVC100
     FM280200 18004KT P6SM BKN250=



000
FTUS42 KILM 271508 AAB
TAFFLO
TAF AMD
KFLO 271508Z 2715/2812 21008KT P6SM VCSH SCT025 BKN060
      TEMPO 2715/2718 4SM SHRA BKN025
     FM272100 18008KT P6SM SCT025 BKN050 OVC100
     FM280200 18004KT P6SM BKN250=



000
FTUS42 KILM 271507 AAB
TAFMYR
TAF AMD
KMYR 271507Z 2715/2812 16007KT P6SM SCT030 BKN050
     FM271700 16012G16KT P6SM SCT040 BKN250
     FM280200 VRB03KT P6SM SKC=



000
FTUS42 KILM 271507 AAB
TAFCRE
TAF AMD
KCRE 271507Z 2715/2812 18012G16KT P6SM VCSH SCT030 BKN250
     FM271700 16012G16KT P6SM SCT040 BKN250
     FM280200 VRB03KT P6SM SKC=



000
FTUS42 KILM 271505 CCA
TAFILM
TAF COR
KILM 271505Z 2715/2812 20011KT P6SM VCSH BKN045 BKN250
     FM271700 16012G16KT P6SM SCT040 BKN250
     FM280200 VRB03KT P6SM SKC=



000
FTUS42 KILM 271505 AAC
TAFILM
TAF AMD
KILM 271505Z 2715/2812 20011KT P6SM VCSH BKN030 BKN250
     FM271700 16012G16KT P6SM SCT040 BKN250
     FM280200 VRB03KT P6SM SKC=



000
FTUS42 KILM 271414 AAB
TAFILM
TAF AMD
KILM 271414Z 2714/2812 16012G16KT P6SM VCSH BKN030 BKN250
     FM271900 16012G16KT P6SM SCT040 BKN250
     FM280200 VRB03KT P6SM SKC=



000
FTUS42 KILM 271414 AAB
TAFILM
TAF AMD
KILM 271414Z 2714/2812 16012G16KT P6SM VCSH BKN030 BKN250
     FM271900 16012G16KT P6SM SCT040 BKN250
     FM280200 VRB03KT P6SM SKC=



000
FTUS42 KILM 271242 AAA
TAFFLO
TAF AMD
KFLO 271242Z 2713/2812 19005KT P6SM BKN010 BKN050
     FM271400 20004KT P6SM OVC025
     FM271500 21008KT P6SM VCSH SCT025 BKN060
      TEMPO 2717/2721 4SM SHRA BKN025
     FM272100 18008KT P6SM SCT025 BKN050 OVC100
     FM280200 18004KT P6SM BKN250=



000
FTUS42 KILM 271242 AAA
TAFFLO
TAF AMD
KFLO 271242Z 2713/2812 19005KT P6SM BKN010 BKN050
     FM271400 20004KT P6SM OVC025
     FM271500 21008KT P6SM VCSH SCT025 BKN060
      TEMPO 2717/2721 4SM SHRA BKN025
     FM272100 18008KT P6SM SCT025 BKN050 OVC100
     FM280200 18004KT P6SM BKN250=



000
FTUS42 KILM 271241 AAA
TAFMYR
TAF AMD
KMYR 271241Z 2713/2812 16007KT P6SM BKN020 BKN050
     FM271500 16012G16KT P6SM VCSH BKN030 BKN250
     FM271900 16012G16KT P6SM SCT040 BKN250
     FM280200 VRB03KT P6SM SKC=



000
FTUS42 KILM 271241 AAA
TAFMYR
TAF AMD
KMYR 271241Z 2713/2812 16007KT P6SM BKN020 BKN050
     FM271500 16012G16KT P6SM VCSH BKN030 BKN250
     FM271900 16012G16KT P6SM SCT040 BKN250
     FM280200 VRB03KT P6SM SKC=



000
FTUS42 KILM 271241 AAA
TAFCRE
TAF AMD
KCRE 271241Z 2713/2812 16007KT P6SM BKN025 BKN050
     FM271500 16012G16KT P6SM VCSH BKN030 BKN250
     FM271900 16012G16KT P6SM SCT040 BKN250
     FM280200 VRB03KT P6SM SKC=



000
FTUS42 KILM 271241 AAA
TAFCRE
TAF AMD
KCRE 271241Z 2713/2812 16007KT P6SM BKN025 BKN050
     FM271500 16012G16KT P6SM VCSH BKN030 BKN250
     FM271900 16012G16KT P6SM SCT040 BKN250
     FM280200 VRB03KT P6SM SKC=



000
FTUS42 KILM 271120
TAFCRE
TAF
KCRE 271120Z 2712/2812 16007KT P6SM SCT025 BKN050
     FM271500 16012G16KT P6SM VCSH BKN030 BKN250
     FM271900 16012G16KT P6SM SCT040 BKN250
     FM280200 VRB03KT P6SM SKC
      AMD NOT SKED=



000
FTUS42 KILM 271120
TAFFLO
TAF
KFLO 271120Z 2712/2812 19005KT P6SM SCT020 BKN050
     FM271300 20004KT P6SM OVC025
     FM271500 21008KT P6SM VCSH SCT025 BKN060
      TEMPO 2717/2721 4SM SHRA BKN025
     FM272100 18008KT P6SM SCT025 BKN050 OVC100
     FM280200 18004KT P6SM BKN250=



000
FTUS42 KILM 271120
TAFCRE
TAF
KCRE 271120Z 2712/2812 16007KT P6SM SCT025 BKN050
     FM271500 16012G16KT P6SM VCSH BKN030 BKN250
     FM271900 16012G16KT P6SM SCT040 BKN250
     FM280200 VRB03KT P6SM SKC
      AMD NOT SKED=



000
FTUS42 KILM 271120
TAFLBT
TAF
KLBT 271120Z 2712/2812 19005KT P6SM SCT020 BKN050
     FM271300 20004KT P6SM OVC025
     FM271500 21008KT P6SM VCSH SCT025 BKN060
      TEMPO 2717/2721 4SM SHRA BKN025
     FM272100 18008KT P6SM SCT025 BKN050 OVC100
     FM280200 18004KT P6SM BKN250=



000
FTUS42 KILM 271120
TAFLBT
TAF
KLBT 271120Z 2712/2812 19005KT P6SM SCT020 BKN050
     FM271300 20004KT P6SM OVC025
     FM271500 21008KT P6SM VCSH SCT025 BKN060
      TEMPO 2717/2721 4SM SHRA BKN025
     FM272100 18008KT P6SM SCT025 BKN050 OVC100
     FM280200 18004KT P6SM BKN250=



000
FTUS42 KILM 271120
TAFMYR
TAF
KMYR 271120Z 2712/2812 16007KT P6SM SCT025 BKN050
     FM271500 16012G16KT P6SM VCSH BKN030 BKN250
     FM271900 16012G16KT P6SM SCT040 BKN250
     FM280200 VRB03KT P6SM SKC=



000
FTUS42 KILM 271120
TAFILM
TAF
KILM 271120Z 2712/2812 19007KT P6SM SCT025 BKN050
     FM271500 16012G16KT P6SM VCSH BKN030 BKN250
     FM271900 16012G16KT P6SM SCT040 BKN250
     FM280200 VRB03KT P6SM SKC=



000
FTUS42 KILM 271120
TAFILM
TAF
KILM 271120Z 2712/2812 19007KT P6SM SCT025 BKN050
     FM271500 16012G16KT P6SM VCSH BKN030 BKN250
     FM271900 16012G16KT P6SM SCT040 BKN250
     FM280200 VRB03KT P6SM SKC=



000
FTUS42 KILM 271120
TAFFLO
TAF
KFLO 271120Z 2712/2812 19005KT P6SM SCT020 BKN050
     FM271300 20004KT P6SM OVC025
     FM271500 21008KT P6SM VCSH SCT025 BKN060
      TEMPO 2717/2721 4SM SHRA BKN025
     FM272100 18008KT P6SM SCT025 BKN050 OVC100
     FM280200 18004KT P6SM BKN250=



000
FTUS42 KILM 271120
TAFMYR
TAF
KMYR 271120Z 2712/2812 16007KT P6SM SCT025 BKN050
     FM271500 16012G16KT P6SM VCSH BKN030 BKN250
     FM271900 16012G16KT P6SM SCT040 BKN250
     FM280200 VRB03KT P6SM SKC=



000
FTUS42 KILM 270943 AAA
TAFMYR
TAF AMD
KMYR 270943Z 2710/2806 17006KT P6SM VCSH SCT020 BKN040
     FM271200 18005KT P6SM VCSH BKN050
     FM271800 17012KT P6SM SCT250
     FM280200 18009KT P6SM SCT250
      AMD NOT SKED=



000
FTUS42 KILM 270943 AAA
TAFMYR
TAF AMD
KMYR 270943Z 2710/2806 17006KT P6SM VCSH SCT020 BKN040
     FM271200 18005KT P6SM VCSH BKN050
     FM271800 17012KT P6SM SCT250
     FM280200 18009KT P6SM SCT250
      AMD NOT SKED=



000
FTUS42 KILM 270942 AAA
TAFCRE
TAF AMD
KCRE 270942Z 2710/2806 20008KT P6SM VCSH SCT020 BKN050
      TEMPO 2710/2713 BKN020
     FM271300 19008KT P6SM VCSH SCT025 BKN080
     FM271800 18011G16KT P6SM SCT250
     FM280300 20008KT P6SM SCT250
      AMD NOT SKED=



000
FTUS42 KILM 270520
TAFILM
TAF
KILM 270520Z 2706/2806 17008KT P6SM SCT025 BKN050
     FM270900 18005KT P6SM SCT015 BKN025
     FM271200 19007KT P6SM SCT025 BKN050
     FM271500 16012G16KT P6SM SCT120 BKN250
     FM280200 VRB03KT P6SM SKC=



000
FTUS42 KILM 270520
TAFCRE
TAF
KCRE 270520Z 2706/2806 20008KT P6SM VCSH SCT020 BKN050
      TEMPO 2709/2713 BKN020
     FM271300 19008KT P6SM VCSH SCT025 BKN080
     FM271800 18011G16KT P6SM SCT250
     FM280300 20008KT P6SM SCT250=



000
FTUS42 KILM 270520
TAFLBT
TAF
KLBT 270520Z 2706/2806 19004KT P6SM SCT070 BKN120
     FM270900 19003KT P6SM SCT015 OVC025
      TEMPO 2709/2712 3SM BR BKN015
     FM271400 22006KT P6SM BKN050
     FM272000 16008KT P6SM VCTS SCT030CB BKN050 OVC100
     FM280200 VRB03KT P6SM BKN250=



000
FTUS42 KILM 270520
TAFMYR
TAF
KMYR 270520Z 2706/2806 17006KT P6SM VCSH SCT020 BKN040
     FM271200 18005KT P6SM VCSH BKN050
     FM271800 17012KT P6SM SCT250
     FM280200 18009KT P6SM SCT250
      AMD LTD TO CLD VIS AND WIND TIL 271100=



000
FTUS42 KILM 270520
TAFFLO
TAF
KFLO 270520Z 2706/2806 19005KT P6SM SCT020 BKN050
      TEMPO 2709/2712 18002KT 4SM BR
     FM271300 20004KT P6SM OVC025
     FM271500 21008KT P6SM VCTS SCT025CB BKN060
     FM272100 18008KT P6SM VCTS SCT025CB BKN050 OVC100
     FM280200 18004KT P6SM BKN250=



000
FTUS42 KILM 270056 AAA
TAFILM
TAF AMD
KILM 270056Z 2701/2724 15011G20KT P6SM VCSH SCT015 SCT040 OVC080
     FM270200 17004KT P6SM FEW025 BKN050 BKN100
     FM271200 18004KT P6SM SCT025 BKN050
     FM271500 15008KT P6SM VCSH SCT120 BKN250
     FM272300 17011KT P6SM SCT250=



000
FTUS42 KILM 270056 AAA
TAFILM
TAF AMD
KILM 270056Z 2701/2724 15011G20KT P6SM VCSH SCT015 SCT040 OVC080
     FM270200 17004KT P6SM FEW025 BKN050 BKN100
     FM271200 18004KT P6SM SCT025 BKN050
     FM271500 15008KT P6SM VCSH SCT120 BKN250
     FM272300 17011KT P6SM SCT250=



000
FTUS42 KILM 262340 CCA
TAFLBT
TAF COR
KLBT 262340Z 2700/2724 16011KT P6SM BKN035 BKN100
     FM270200 16004KT P6SM SCT100 SCT250
     FM270900 18003KT P6SM SCT015 OVC025
      TEMPO 2710/2712 6SM BR
     FM271200 21006KT P6SM BKN050
     FM271700 18008KT P6SM VCSH BKN050 OVC100=



000
FTUS42 KILM 262332
TAFILM
TAF
KILM 262332Z 2700/2724 15011G20KT P6SM VCSH SCT015 BKN025
     FM270200 17004KT P6SM FEW025 BKN050 BKN100
     FM271200 18004KT P6SM SCT025 BKN050
     FM271500 15008KT P6SM VCSH SCT120 BKN250
     FM272300 17011KT P6SM SCT250=



000
FTUS42 KILM 262332
TAFCRE
TAF
KCRE 262332Z 2700/2724 18010G18KT P6SM SCT010 OVC070
     FM270200 20008KT P6SM VCSH SCT040 SCT100
     FM271200 20004KT P6SM VCSH BKN050
     FM271800 18011KT P6SM SCT250=



000
FTUS42 KILM 262332
TAFLBT
TAF
KLBT 262332Z 2700/2724 16011KT P6SM BKN030 BKN100
     FM270200 16004KT P6SM SCT100 SCT250
     FM270900 18003KT P6SM SCT015 OVC025
      TEMPO 2710/2712 6SM BR
     FM271200 21006KT P6SM BKN050
     FM271700 18008KT P6SM VCSH BKN050 OVC100=



000
FTUS42 KILM 262332
TAFFLO
TAF
KFLO 262332Z 2700/2724 15012KT P6SM VCTS BKN050CB
     FM270200 17011KT P6SM SCT025 SCT050
      TEMPO 2710/2712 6SM BR
     FM271200 19004KT P6SM OVC025
     FM271500 21006KT P6SM VCSH BKN050
     FM271900 17008KT P6SM VCSH BKN050 OVC100=



000
FTUS42 KILM 262332
TAFMYR
TAF
KMYR 262332Z 2700/2724 16011G18KT P6SM SCT010 OVC070
     FM270200 17008KT P6SM VCSH SCT040 SCT100
     FM271200 18005KT P6SM VCSH BKN050
     FM271800 17012KT P6SM SCT250
      AMD LTD TO CLD VIS AND WIND 2704/2711=



000
FTUS42 KILM 261838 AAA
TAFCRE
TAF AMD
KCRE 261838Z 2619/2718 17010KT P6SM BKN010 BKN080
     FM270200 20008KT P6SM VCSH SCT040 SCT100
     FM271200 20004KT P6SM VCSH BKN050=



000
FTUS42 KILM 261838 AAA
TAFCRE
TAF AMD
KCRE 261838Z 2619/2718 17010KT P6SM BKN010 BKN080
     FM270200 20008KT P6SM VCSH SCT040 SCT100
     FM271200 20004KT P6SM VCSH BKN050=



000
FTUS42 KILM 261742 CCA
TAFILM
TAF COR
KILM 261742Z 2618/2718 15011G20KT P6SM VCSH FEW025 BKN060
      TEMPO 2618/2622 BKN025
     FM270200 VRB03KT P6SM SKC
     FM271200 18004KT P6SM BKN050
     FM271500 15008KT P6SM SCT250=



000
FTUS42 KILM 261742 CCA
TAFILM
TAF COR
KILM 261742Z 2618/2718 15011G20KT P6SM VCSH FEW025 BKN060
      TEMPO 2618/2622 BKN025
     FM270200 VRB03KT P6SM SKC
     FM271200 18004KT P6SM BKN050
     FM271500 15008KT P6SM SCT250=



000
FTUS42 KILM 261735
TAFFLO
TAF
KFLO 261735Z 2618/2718 21007KT P6SM VCSH SCT025 BKN050
     FM270000 17005KT P6SM BKN050
     FM271200 19004KT P6SM OVC025
     FM271500 21006KT P6SM BKN050=



000
FTUS42 KILM 261735
TAFLBT
TAF
KLBT 261735Z 2618/2718 22007KT P6SM VCSH SCT025 BKN050
     FM261900 17008KT P6SM SCT050 BKN100
     FM270200 16004KT P6SM SCT100 SCT250
     FM271200 21006KT P6SM BKN050=



000
FTUS42 KILM 261735
TAFILM
TAF
KILM 261735Z 2618/2718 15011G20KT P6SM VCSH FEW050 OVC060
     FM270200 VRB03KT P6SM SKC
     FM271200 18004KT P6SM BKN050
     FM271500 15008KT P6SM SCT250=



000
FTUS42 KILM 261735
TAFCRE
TAF
KCRE 261735Z 2618/2718 17013KT P6SM FEW050
     FM270200 20008KT P6SM VCSH SCT040 SCT100
     FM271200 20004KT P6SM VCSH BKN050=



000
FTUS42 KILM 261735
TAFMYR
TAF
KMYR 261735Z 2618/2718 16014KT P6SM SCT050 SCT120
     FM270200 17008KT P6SM VCSH SCT040 SCT100
     FM271200 18005KT P6SM VCSH BKN050=



000
FTUS42 KILM 261120
TAFILM
TAF
KILM 261120Z 2612/2712 15008KT P6SM SCT040
     FM261300 VRB04KT P6SM SCT050 SCT120
     FM261600 15011G18KT P6SM VCSH FEW050 SCT120
     FM270200 17006KT P6SM BKN100=



000
FTUS42 KILM 261120
TAFFLO
TAF
KFLO 261120Z 2612/2712 12003KT 5SM BR SCT007 BKN015
     FM261300 17006KT P6SM SCT025 BKN050
     FM261900 15011G15KT P6SM SCT050 BKN100
     FM270000 16007KT P6SM SCT100 SCT250=



000
FTUS42 KILM 261120
TAFLBT
TAF
KLBT 261120Z 2612/2712 18006KT P6SM SCT025 BKN050
     FM261900 15008G15KT P6SM SCT050 BKN100
     FM270200 15004KT P6SM SCT100 SCT250=



000
FTUS42 KILM 261120
TAFMYR
TAF
KMYR 261120Z 2612/2712 12009KT P6SM SCT025 BKN060
      TEMPO 2614/2617 6SM -SHRA BKN025
     FM261700 16012G20KT P6SM SCT050 SCT120
     FM270200 17012KT P6SM SCT100=



000
FTUS42 KILM 261120
TAFCRE
TAF
KCRE 261120Z 2612/2712 16007KT P6SM VCSH SCT025 BKN050
      TEMPO 2613/2617 6SM -SHRA BKN025
     FM261700 16010G18KT P6SM FEW050 SCT120
     FM270200 19011KT P6SM SCT100=



000
FTUS42 KILM 261015 AAD
TAFLBT
TAF AMD
KLBT 261015Z 2610/2706 VRB02KT 3SM BR SKC
     FM261200 18006KT P6SM SCT025 BKN050
     FM261900 15008G15KT P6SM SCT050 BKN100
     FM270200 15004KT P6SM SCT100 SCT250=



000
FTUS42 KILM 261015 AAD
TAFLBT
TAF AMD
KLBT 261015Z 2610/2706 VRB02KT 3SM BR SKC
     FM261200 18006KT P6SM SCT025 BKN050
     FM261900 15008G15KT P6SM SCT050 BKN100
     FM270200 15004KT P6SM SCT100 SCT250=



000
FTUS42 KILM 261014 AAA
TAFMYR
TAF AMD
KMYR 261014Z 2610/2706 12009KT P6SM SCT025 BKN060
     FM261700 16012G20KT P6SM SCT050 SCT120
     FM270200 17012KT P6SM SCT100
      AMD LTD TO CLD VIS AND WIND TIL 261100=



000
FTUS42 KILM 261014 AAA
TAFMYR
TAF AMD
KMYR 261014Z 2610/2706 12009KT P6SM SCT025 BKN060
     FM261700 16012G20KT P6SM SCT050 SCT120
     FM270200 17012KT P6SM SCT100
      AMD LTD TO CLD VIS AND WIND TIL 261100=



000
FTUS42 KILM 260935 AAC
TAFLBT
TAF AMD
KLBT 260935Z 2610/2706 VRB02KT 1/2SM FG SCT007
      TEMPO 2610/2612 3SM BR
     FM261300 18006KT P6SM SCT025 BKN050
     FM261900 15008G15KT P6SM SCT050 BKN100
     FM270200 15004KT P6SM SCT100 SCT250=



000
FTUS42 KILM 260920 AAB
TAFLBT
TAF AMD
KLBT 260920Z 2609/2706 VRB02KT 1/2SM FG SCT007
     FM261300 18006KT P6SM SCT025 BKN050
     FM261900 15008G15KT P6SM SCT050 BKN100
     FM270200 15004KT P6SM SCT100 SCT250=



000
FTUS42 KILM 260817 AAA
TAFLBT
TAF AMD
KLBT 260817Z 2608/2706 VRB02KT 3SM BR SCT007 BKN015
     FM261300 18006KT P6SM SCT025 BKN050
     FM261900 15008G15KT P6SM SCT050 BKN100
     FM270200 15004KT P6SM SCT100 SCT250=



000
FTUS42 KILM 260817 AAA
TAFLBT
TAF AMD
KLBT 260817Z 2608/2706 VRB02KT 3SM BR SCT007 BKN015
     FM261300 18006KT P6SM SCT025 BKN050
     FM261900 15008G15KT P6SM SCT050 BKN100
     FM270200 15004KT P6SM SCT100 SCT250=



000
FTUS42 KILM 260520
TAFMYR
TAF
KMYR 260520Z 2606/2706 15006KT P6SM SKC
     FM260900 14005KT P6SM SCT007 BKN030
      TEMPO 2609/2611 4SM BR BKN007 OVC015
     FM261200 14007KT P6SM SCT025 BKN050
     FM261700 16011G20KT P6SM FEW050 SCT120
     FM270200 17012KT P6SM SCT100
      AMD LTD TO CLD VIS AND WIND TIL 261100=



000
FTUS42 KILM 260520
TAFCRE
TAF
KCRE 260520Z 2606/2706 14008KT P6SM SKC
     FM260900 14006KT P6SM SCT015 BKN030
      TEMPO 2609/2611 3SM BR SCT007 BKN015
     FM261200 16007KT P6SM SCT025 BKN050
     FM261700 16010G18KT P6SM FEW050 SCT120
     FM270200 19011KT P6SM SCT100=



000
FTUS42 KILM 260520
TAFCRE
TAF
KCRE 260520Z 2606/2706 14008KT P6SM SKC
     FM260900 14006KT P6SM SCT015 BKN030
      TEMPO 2609/2611 3SM BR SCT007 BKN015
     FM261200 16007KT P6SM SCT025 BKN050
     FM261700 16010G18KT P6SM FEW050 SCT120
     FM270200 19011KT P6SM SCT100=



000
FTUS42 KILM 260520
TAFFLO
TAF
KFLO 260520Z 2606/2706 14005KT P6SM SKC
     FM260900 12003KT 3SM BR SCT007 BKN015
     FM261300 17006KT P6SM SCT025 BKN050
     FM261900 15011G15KT P6SM SCT050 BKN100
     FM270000 16007KT P6SM SCT100 SCT250=



000
FTUS42 KILM 260520
TAFILM
TAF
KILM 260520Z 2606/2706 15008KT P6SM SCT040
      TEMPO 2609/2611 5SM BR SCT020 BKN035
     FM261300 VRB04KT P6SM SCT050 SCT120
     FM261700 15011G18KT P6SM FEW050 SCT120
     FM270200 17006KT P6SM BKN100=



000
FTUS42 KILM 260520
TAFFLO
TAF
KFLO 260520Z 2606/2706 14005KT P6SM SKC
     FM260900 12003KT 3SM BR SCT007 BKN015
     FM261300 17006KT P6SM SCT025 BKN050
     FM261900 15011G15KT P6SM SCT050 BKN100
     FM270000 16007KT P6SM SCT100 SCT250=



000
FTUS42 KILM 260520
TAFLBT
TAF
KLBT 260520Z 2606/2706 15006KT P6SM SKC
     FM260900 VRB03KT 3SM BR SCT007 BKN015
     FM261300 18006KT P6SM SCT025 BKN050
     FM261900 15008G15KT P6SM SCT050 BKN100
     FM270200 15004KT P6SM SCT100 SCT250=



000
FTUS42 KILM 260520
TAFMYR
TAF
KMYR 260520Z 2606/2706 15006KT P6SM SKC
     FM260900 14005KT P6SM SCT007 BKN030
      TEMPO 2609/2611 4SM BR BKN007 OVC015
     FM261200 14007KT P6SM SCT025 BKN050
     FM261700 16011G20KT P6SM FEW050 SCT120
     FM270200 17012KT P6SM SCT100
      AMD LTD TO CLD VIS AND WIND TIL 261100=



000
FTUS42 KILM 260520
TAFILM
TAF
KILM 260520Z 2606/2706 15008KT P6SM SCT040
      TEMPO 2609/2611 5SM BR SCT020 BKN035
     FM261300 VRB04KT P6SM SCT050 SCT120
     FM261700 15011G18KT P6SM FEW050 SCT120
     FM270200 17006KT P6SM BKN100=



000
FTUS42 KILM 260520
TAFLBT
TAF
KLBT 260520Z 2606/2706 15006KT P6SM SKC
     FM260900 VRB03KT 3SM BR SCT007 BKN015
     FM261300 18006KT P6SM SCT025 BKN050
     FM261900 15008G15KT P6SM SCT050 BKN100
     FM270200 15004KT P6SM SCT100 SCT250=



000
FTUS42 KILM 260157 AAA
TAFLBT
TAF AMD
KLBT 260157Z 2602/2624 16007KT P6SM SKC
      TEMPO 2602/2604 4SM BR
     FM260900 VRB03KT 4SM BR SCT007 BKN015
     FM261300 18006KT P6SM SCT025 BKN050
     FM261900 15008G15KT P6SM SCT050 BKN100=



000
FTUS42 KILM 252328
TAFLBT
TAF
KLBT 252328Z 2600/2624 16007KT P6SM FEW040
     FM260900 VRB03KT 5SM BR SCT007 BKN015
     FM261300 18006KT P6SM SCT025 BKN050
     FM261900 15008G15KT P6SM SCT050 BKN100=



000
FTUS42 KILM 252328
TAFMYR
TAF
KMYR 252328Z 2600/2624 15011KT P6SM FEW040
     FM260900 14005KT P6SM BKN030
      TEMPO 2609/2611 5SM BR BKN007
     FM261200 14007KT P6SM SCT025 BKN050
     FM261700 16011G20KT P6SM SCT120 SCT250
      AMD LTD TO CLD VIS AND WIND 2604/2611=



000
FTUS42 KILM 252328
TAFCRE
TAF
KCRE 252328Z 2600/2624 14008KT P6SM FEW040
     FM260800 14006KT P6SM BKN030
      TEMPO 2609/2611 5SM BR BKN007
     FM261200 16007KT P6SM SCT025 BKN050
     FM261700 16010G18KT P6SM SCT120 SCT250=



000
FTUS42 KILM 252328
TAFFLO
TAF
KFLO 252328Z 2600/2624 16007KT P6SM FEW040
     FM260900 12003KT 5SM BR SCT007 BKN015
     FM261300 17006KT P6SM SCT025 BKN050
     FM261900 15011G15KT P6SM SCT050 BKN100=



000
FTUS42 KILM 252328
TAFILM
TAF
KILM 252328Z 2600/2624 15008KT P6SM FEW040
      TEMPO 2609/2611 5SM BR SCT007
     FM261300 VRB04KT P6SM SCT050 SCT100
     FM261700 15011G18KT P6SM SCT120 SCT250=



000
FTUS42 KILM 251735
TAFLBT
TAF
KLBT 251735Z 2518/2618 17005KT P6SM SCT040
     FM260900 00000KT 5SM BR FEW015
     FM261200 14003KT P6SM BKN025
     FM261500 18006KT P6SM SCT040=



000
FTUS42 KILM 251735
TAFILM
TAF
KILM 251735Z 2518/2618 13008KT P6SM FEW040
      TEMPO 2609/2611 5SM BR
     FM261200 15006KT P6SM SKC=



000
FTUS42 KILM 251735
TAFFLO
TAF
KFLO 251735Z 2518/2618 12005KT P6SM SCT040
     FM260900 10003KT 5SM BR BKN015
     FM261500 17006KT P6SM SCT040=



000
FTUS42 KILM 251735
TAFCRE
TAF
KCRE 251735Z 2518/2618 14008KT P6SM SCT040
      TEMPO 2609/2611 5SM BR
     FM261200 16007KT P6SM BKN050
     FM261700 16010KT P6SM FEW250=



000
FTUS42 KILM 251735
TAFMYR
TAF
KMYR 251735Z 2518/2618 15011KT P6SM FEW030
     FM260900 14005KT P6SM BKN030
      TEMPO 2609/2611 5SM BR
     FM261200 14007KT P6SM BKN025
      AMD LTD TO CLD VIS AND WIND TIL 261100=



000
FTUS42 KILM 251604 AAA
TAFILM
TAF AMD
KILM 251604Z 2516/2612 11009G16KT P6SM FEW040
      TEMPO 2609/2611 5SM BR=



000
FTUS42 KILM 251120
TAFILM
TAF
KILM 251120Z 2512/2612 13008KT P6SM SCT040 BKN250
      TEMPO 2609/2611 5SM BR=



000
FTUS42 KILM 251120
TAFMYR
TAF
KMYR 251120Z 2512/2612 14009KT P6SM SCT040 BKN250
      TEMPO 2609/2611 5SM BR=



000
FTUS42 KILM 251120
TAFLBT
TAF
KLBT 251120Z 2512/2612 15007KT P6SM SCT040 BKN250
     FM260900 13002KT 5SM BR SCT015=



000
FTUS42 KILM 251120
TAFCRE
TAF
KCRE 251120Z 2512/2612 14008KT P6SM SCT040 BKN250
      TEMPO 2609/2611 5SM BR=



000
FTUS42 KILM 251120
TAFFLO
TAF
KFLO 251120Z 2512/2612 14008KT P6SM SCT040 BKN250
     FM260900 13002KT 5SM BR SCT015=



000
FTUS42 KILM 250533
TAFFLO
TAF
KFLO 250533Z 2506/2606 14008KT P6SM SCT040
      TEMPO 2509/2511 VRB03KT 4SM BR=



000
FTUS42 KILM 250533
TAFCRE
TAF
KCRE 250533Z 2506/2606 14008KT P6SM SCT040=



000
FTUS42 KILM 250533
TAFLBT
TAF
KLBT 250533Z 2506/2606 15007KT P6SM SCT040
      TEMPO 2508/2511 VRB03KT 4SM BR=



000
FTUS42 KILM 250533
TAFILM
TAF
KILM 250533Z 2506/2606 13008KT P6SM SCT040
      TEMPO 2509/2511 VRB03KT 5SM BR=



000
FTUS42 KILM 250533
TAFMYR
TAF
KMYR 250533Z 2506/2606 14009KT P6SM SCT040
      AMD LTD TO CLD VIS AND WIND TIL 251100=



000
FTUS42 KILM 242320
TAFILM
TAF
KILM 242320Z 2500/2524 13008KT P6SM SCT045
      TEMPO 2509/2511 VRB03KT 5SM BR=



000
FTUS42 KILM 242320
TAFLBT
TAF
KLBT 242320Z 2500/2524 15007KT P6SM SKC
      TEMPO 2508/2511 VRB03KT 4SM BR=



000
FTUS42 KILM 242320
TAFFLO
TAF
KFLO 242320Z 2500/2524 14008KT P6SM SKC
      TEMPO 2509/2511 VRB03KT 4SM BR=



000
FTUS42 KILM 242320
TAFLBT
TAF
KLBT 242320Z 2500/2524 15007KT P6SM SKC
      TEMPO 2508/2511 VRB03KT 4SM BR=



000
FTUS42 KILM 242320
TAFFLO
TAF
KFLO 242320Z 2500/2524 14008KT P6SM SKC
      TEMPO 2509/2511 VRB03KT 4SM BR=



000
FTUS42 KILM 242320
TAFILM
TAF
KILM 242320Z 2500/2524 13008KT P6SM SCT045
      TEMPO 2509/2511 VRB03KT 5SM BR=



000
FTUS42 KILM 242320
TAFCRE
TAF
KCRE 242320Z 2500/2524 14008KT P6SM SCT045=



000
FTUS42 KILM 242320
TAFMYR
TAF
KMYR 242320Z 2500/2524 14009KT P6SM SCT045
      AMD LTD TO CLD VIS AND WIND 2504/2511=



000
FTUS42 KILM 242320
TAFCRE
TAF
KCRE 242320Z 2500/2524 14008KT P6SM SCT045=



000
FTUS42 KILM 242320
TAFMYR
TAF
KMYR 242320Z 2500/2524 14009KT P6SM SCT045
      AMD LTD TO CLD VIS AND WIND 2504/2511=



    US Dept of Commerce
    National Oceanic and Atmospheric Administration
    National Weather Service
    1325 East West Highway
    Silver Spring, MD 20910
    Page Author: NWS Internet Services Team
Disclaimer
Information Quality
Credits
Glossary
Privacy Policy
Freedom of Information Act (FOIA)
About Us
Career Opportunities